sensor_id;sensor_type;location;lat;lon;timestamp;pressure;altitude;pressure_sealevel;temperature;humidity
9335;BME280;4706;41.844;26.082;2023-05-25T00:01:06;100643.97;;;19.09;80.58
9335;BME280;4706;41.844;26.082;2023-05-25T00:03:32;100624.81;;;19.07;80.40
9335;BME280;4706;41.844;26.082;2023-05-25T00:05:58;100635.22;;;19.10;80.40
9335;BME280;4706;41.844;26.082;2023-05-25T00:08:25;100622.75;;;19.04;80.62
9335;BME280;4706;41.844;26.082;2023-05-25T00:10:51;100632.00;;;19.08;80.61
9335;BME280;4706;41.844;26.082;2023-05-25T00:13:16;100628.41;;;19.08;81.17
9335;BME280;4706;41.844;26.082;2023-05-25T00:15:42;100630.31;;;19.04;81.75
9335;BME280;4706;41.844;26.082;2023-05-25T00:18:07;100624.25;;;19.02;81.27
9335;BME280;4706;41.844;26.082;2023-05-25T00:20:33;100620.84;;;18.92;81.40
9335;BME280;4706;41.844;26.082;2023-05-25T00:22:58;100627.66;;;18.95;81.86
9335;BME280;4706;41.844;26.082;2023-05-25T00:25:27;100629.91;;;18.89;82.00
9335;BME280;4706;41.844;26.082;2023-05-25T00:27:52;100629.00;;;18.85;82.16
9335;BME280;4706;41.844;26.082;2023-05-25T00:30:18;100630.25;;;18.88;82.00
9335;BME280;4706;41.844;26.082;2023-05-25T00:32:44;100629.13;;;18.77;82.27
9335;BME280;4706;41.844;26.082;2023-05-25T00:35:09;100635.28;;;18.82;81.93
9335;BME280;4706;41.844;26.082;2023-05-25T00:37:35;100628.31;;;18.76;81.78
9335;BME280;4706;41.844;26.082;2023-05-25T00:40:01;100631.84;;;18.73;81.81
9335;BME280;4706;41.844;26.082;2023-05-25T00:42:26;100626.03;;;18.66;82.17
9335;BME280;4706;41.844;26.082;2023-05-25T00:44:53;100628.13;;;18.57;82.12
9335;BME280;4706;41.844;26.082;2023-05-25T00:47:18;100629.16;;;18.64;81.83
9335;BME280;4706;41.844;26.082;2023-05-25T00:49:44;100635.09;;;18.63;81.36
9335;BME280;4706;41.844;26.082;2023-05-25T00:52:11;100644.25;;;18.63;81.56
9335;BME280;4706;41.844;26.082;2023-05-25T00:54:37;100646.03;;;18.56;81.88
9335;BME280;4706;41.844;26.082;2023-05-25T00:57:05;100645.44;;;18.50;82.20
9335;BME280;4706;41.844;26.082;2023-05-25T00:59:54;100645.44;;;18.50;82.65
9335;BME280;4706;41.844;26.082;2023-05-25T01:02:20;100648.22;;;18.50;82.75
9335;BME280;4706;41.844;26.082;2023-05-25T01:04:53;100645.34;;;18.47;83.27
9335;BME280;4706;41.844;26.082;2023-05-25T01:07:22;100633.19;;;18.39;83.23
9335;BME280;4706;41.844;26.082;2023-05-25T01:09:55;100647.94;;;18.39;83.19
9335;BME280;4706;41.844;26.082;2023-05-25T01:12:23;100652.78;;;18.42;83.33
9335;BME280;4706;41.844;26.082;2023-05-25T01:14:52;100643.41;;;18.35;83.37
9335;BME280;4706;41.844;26.082;2023-05-25T01:17:19;100645.03;;;18.36;82.93
9335;BME280;4706;41.844;26.082;2023-05-25T01:19:45;100637.50;;;18.36;82.39
9335;BME280;4706;41.844;26.082;2023-05-25T01:24:55;100650.25;;;18.37;81.33
9335;BME280;4706;41.844;26.082;2023-05-25T01:27:41;100640.41;;;18.28;81.56
9335;BME280;4706;41.844;26.082;2023-05-25T01:30:12;100635.19;;;18.26;80.98
9335;BME280;4706;41.844;26.082;2023-05-25T01:32:38;100635.53;;;18.37;80.16
9335;BME280;4706;41.844;26.082;2023-05-25T01:35:05;100648.75;;;18.40;79.97
9335;BME280;4706;41.844;26.082;2023-05-25T01:37:34;100637.59;;;18.28;81.05
9335;BME280;4706;41.844;26.082;2023-05-25T01:40:02;100651.41;;;18.36;80.27
9335;BME280;4706;41.844;26.082;2023-05-25T01:42:30;100643.44;;;18.23;81.32
9335;BME280;4706;41.844;26.082;2023-05-25T01:44:55;100647.03;;;18.23;81.06
9335;BME280;4706;41.844;26.082;2023-05-25T01:47:43;100658.19;;;18.11;81.21
9335;BME280;4706;41.844;26.082;2023-05-25T01:50:20;100647.31;;;18.06;81.21
9335;BME280;4706;41.844;26.082;2023-05-25T01:52:58;100653.09;;;18.13;81.54
9335;BME280;4706;41.844;26.082;2023-05-25T01:55:28;100652.63;;;18.11;81.74
9335;BME280;4706;41.844;26.082;2023-05-25T01:57:55;100655.97;;;18.16;81.45
9335;BME280;4706;41.844;26.082;2023-05-25T02:00:24;100648.22;;;18.10;81.20
9335;BME280;4706;41.844;26.082;2023-05-25T02:02:51;100638.69;;;18.11;80.93
9335;BME280;4706;41.844;26.082;2023-05-25T02:05:19;100655.88;;;18.13;81.02
9335;BME280;4706;41.844;26.082;2023-05-25T02:07:45;100654.22;;;18.12;81.93
9335;BME280;4706;41.844;26.082;2023-05-25T02:10:10;100653.78;;;18.10;82.29
9335;BME280;4706;41.844;26.082;2023-05-25T02:12:36;100655.41;;;18.11;81.69
9335;BME280;4706;41.844;26.082;2023-05-25T02:15:01;100659.00;;;18.11;81.94
9335;BME280;4706;41.844;26.082;2023-05-25T02:17:27;100660.16;;;18.10;81.77
9335;BME280;4706;41.844;26.082;2023-05-25T02:19:52;100658.06;;;18.07;82.11
9335;BME280;4706;41.844;26.082;2023-05-25T02:22:19;100663.16;;;18.05;82.16
9335;BME280;4706;41.844;26.082;2023-05-25T02:24:45;100650.19;;;17.97;82.13
9335;BME280;4706;41.844;26.082;2023-05-25T02:27:10;100660.63;;;18.00;82.08
9335;BME280;4706;41.844;26.082;2023-05-25T02:29:37;100670.81;;;18.08;82.34
9335;BME280;4706;41.844;26.082;2023-05-25T02:32:03;100670.38;;;18.06;82.56
9335;BME280;4706;41.844;26.082;2023-05-25T02:34:28;100660.63;;;18.00;82.53
9335;BME280;4706;41.844;26.082;2023-05-25T02:36:54;100669.34;;;17.99;82.60
9335;BME280;4706;41.844;26.082;2023-05-25T02:39:20;100660.16;;;17.86;83.00
9335;BME280;4706;41.844;26.082;2023-05-25T02:41:45;100675.59;;;17.95;82.99
9335;BME280;4706;41.844;26.082;2023-05-25T02:44:11;100667.50;;;17.90;83.17
9335;BME280;4706;41.844;26.082;2023-05-25T02:46:36;100672.34;;;17.93;83.05
9335;BME280;4706;41.844;26.082;2023-05-25T02:49:02;100674.31;;;17.93;83.04
9335;BME280;4706;41.844;26.082;2023-05-25T02:51:28;100678.72;;;17.94;83.18
9335;BME280;4706;41.844;26.082;2023-05-25T02:53:53;100665.16;;;17.80;82.66
9335;BME280;4706;41.844;26.082;2023-05-25T02:56:19;100669.00;;;17.76;82.86
9335;BME280;4706;41.844;26.082;2023-05-25T02:58:47;100679.06;;;17.80;83.26
9335;BME280;4706;41.844;26.082;2023-05-25T03:01:13;100682.22;;;17.91;82.99
9335;BME280;4706;41.844;26.082;2023-05-25T03:03:44;100686.97;;;17.90;82.83
9335;BME280;4706;41.844;26.082;2023-05-25T03:06:10;100685.81;;;17.79;82.78
9335;BME280;4706;41.844;26.082;2023-05-25T03:08:37;100693.91;;;17.84;82.97
9335;BME280;4706;41.844;26.082;2023-05-25T03:11:03;100699.91;;;17.86;82.59
9335;BME280;4706;41.844;26.082;2023-05-25T03:13:29;100696.00;;;17.87;81.84
9335;BME280;4706;41.844;26.082;2023-05-25T03:15:54;100703.41;;;17.95;81.60
9335;BME280;4706;41.844;26.082;2023-05-25T03:18:20;100705.03;;;17.96;81.44
9335;BME280;4706;41.844;26.082;2023-05-25T03:20:45;100691.25;;;17.88;80.94
9335;BME280;4706;41.844;26.082;2023-05-25T03:23:12;100697.63;;;17.88;80.64
9335;BME280;4706;41.844;26.082;2023-05-25T03:25:37;100706.44;;;17.90;80.88
9335;BME280;4706;41.844;26.082;2023-05-25T03:28:03;100690.53;;;17.79;81.39
9335;BME280;4706;41.844;26.082;2023-05-25T03:30:28;100644.56;;;17.48;80.96
9335;BME280;4706;41.844;26.082;2023-05-25T03:32:54;100692.84;;;17.89;79.75
9335;BME280;4706;41.844;26.082;2023-05-25T03:35:20;100689.38;;;17.80;80.74
9335;BME280;4706;41.844;26.082;2023-05-25T03:37:46;100694.94;;;17.92;80.19
9335;BME280;4706;41.844;26.082;2023-05-25T03:40:11;100700.16;;;18.18;79.37
9335;BME280;4706;41.844;26.082;2023-05-25T03:42:37;100699.47;;;18.21;78.96
9335;BME280;4706;41.844;26.082;2023-05-25T03:45:03;100704.78;;;18.26;79.02
9335;BME280;4706;41.844;26.082;2023-05-25T03:47:28;100713.00;;;18.35;79.38
9335;BME280;4706;41.844;26.082;2023-05-25T03:49:55;100713.47;;;18.49;79.16
9335;BME280;4706;41.844;26.082;2023-05-25T03:52:21;100711.47;;;18.62;78.52
9335;BME280;4706;41.844;26.082;2023-05-25T03:54:46;100689.69;;;18.52;78.36
9335;BME280;4706;41.844;26.082;2023-05-25T03:57:12;100703.44;;;18.73;77.92
9335;BME280;4706;41.844;26.082;2023-05-25T03:59:37;100715.13;;;18.90;77.93
9335;BME280;4706;41.844;26.082;2023-05-25T04:02:03;100710.56;;;18.98;77.71
9335;BME280;4706;41.844;26.082;2023-05-25T04:04:28;100710.19;;;19.12;77.34
9335;BME280;4706;41.844;26.082;2023-05-25T04:06:54;100712.09;;;19.24;76.96
9335;BME280;4706;41.844;26.082;2023-05-25T04:09:19;100718.41;;;19.36;76.44
9335;BME280;4706;41.844;26.082;2023-05-25T04:11:45;100724.56;;;19.42;76.72
9335;BME280;4706;41.844;26.082;2023-05-25T04:14:11;100721.69;;;19.54;76.57
9335;BME280;4706;41.844;26.082;2023-05-25T04:16:37;100709.00;;;19.57;76.41
9335;BME280;4706;41.844;26.082;2023-05-25T04:19:05;100710.13;;;19.68;76.35
9335;BME280;4706;41.844;26.082;2023-05-25T04:21:30;100708.50;;;19.83;75.90
9335;BME280;4706;41.844;26.082;2023-05-25T04:23:56;100718.06;;;19.98;75.50
9335;BME280;4706;41.844;26.082;2023-05-25T04:26:22;100706.59;;;20.03;75.53
9335;BME280;4706;41.844;26.082;2023-05-25T04:28:48;100724.22;;;20.23;75.50
9335;BME280;4706;41.844;26.082;2023-05-25T04:31:13;100721.69;;;20.33;75.40
9335;BME280;4706;41.844;26.082;2023-05-25T04:33:39;100691.34;;;20.32;74.85
9335;BME280;4706;41.844;26.082;2023-05-25T04:36:05;100714.34;;;20.60;74.53
9335;BME280;4706;41.844;26.082;2023-05-25T04:38:30;100722.16;;;20.71;74.49
9335;BME280;4706;41.844;26.082;2023-05-25T04:41:00;100721.50;;;20.77;74.50
9335;BME280;4706;41.844;26.082;2023-05-25T04:43:30;100723.22;;;20.82;74.43
9335;BME280;4706;41.844;26.082;2023-05-25T04:45:55;100719.59;;;20.81;74.47
9335;BME280;4706;41.844;26.082;2023-05-25T04:48:22;100708.34;;;20.78;74.36
9335;BME280;4706;41.844;26.082;2023-05-25T04:50:49;100711.59;;;20.80;75.20
9335;BME280;4706;41.844;26.082;2023-05-25T04:53:14;100726.53;;;20.88;75.52
9335;BME280;4706;41.844;26.082;2023-05-25T04:55:40;100726.00;;;20.82;75.63
9335;BME280;4706;41.844;26.082;2023-05-25T04:58:06;100727.56;;;20.99;75.81
9335;BME280;4706;41.844;26.082;2023-05-25T05:00:32;100729.03;;;21.12;75.65
9335;BME280;4706;41.844;26.082;2023-05-25T05:02:58;100732.47;;;21.25;75.96
9335;BME280;4706;41.844;26.082;2023-05-25T05:05:24;100728.81;;;21.40;75.43
9335;BME280;4706;41.844;26.082;2023-05-25T05:07:50;100725.53;;;21.57;75.02
9335;BME280;4706;41.844;26.082;2023-05-25T05:10:16;100721.38;;;21.71;74.25
9335;BME280;4706;41.844;26.082;2023-05-25T05:12:42;100735.00;;;21.95;72.92
9335;BME280;4706;41.844;26.082;2023-05-25T05:15:08;100724.03;;;22.10;72.17
9335;BME280;4706;41.844;26.082;2023-05-25T05:17:33;100716.56;;;22.17;72.06
9335;BME280;4706;41.844;26.082;2023-05-25T05:19:59;100725.25;;;22.35;71.51
9335;BME280;4706;41.844;26.082;2023-05-25T05:22:24;100691.19;;;22.33;71.50
9335;BME280;4706;41.844;26.082;2023-05-25T05:24:50;100712.50;;;22.68;70.42
9335;BME280;4706;41.844;26.082;2023-05-25T05:27:15;100728.38;;;22.87;69.96
9335;BME280;4706;41.844;26.082;2023-05-25T05:29:41;100725.88;;;23.08;69.35
9335;BME280;4706;41.844;26.082;2023-05-25T05:32:07;100721.72;;;23.29;69.04
9335;BME280;4706;41.844;26.082;2023-05-25T05:34:33;100729.47;;;23.42;68.18
9335;BME280;4706;41.844;26.082;2023-05-25T05:36:59;100734.88;;;23.62;67.59
9335;BME280;4706;41.844;26.082;2023-05-25T05:39:25;100714.59;;;23.75;65.84
9335;BME280;4706;41.844;26.082;2023-05-25T05:41:52;100719.00;;;23.77;65.67
9335;BME280;4706;41.844;26.082;2023-05-25T05:44:19;100737.59;;;23.92;65.85
9335;BME280;4706;41.844;26.082;2023-05-25T05:46:45;100733.22;;;23.94;65.83
9335;BME280;4706;41.844;26.082;2023-05-25T05:49:11;100739.78;;;24.13;65.34
9335;BME280;4706;41.844;26.082;2023-05-25T05:51:36;100736.56;;;24.11;65.87
9335;BME280;4706;41.844;26.082;2023-05-25T05:54:02;100739.88;;;24.23;65.12
9335;BME280;4706;41.844;26.082;2023-05-25T05:56:28;100746.47;;;24.42;64.12
9335;BME280;4706;41.844;26.082;2023-05-25T05:58:53;100750.59;;;24.59;63.11
9335;BME280;4706;41.844;26.082;2023-05-25T06:01:19;100753.91;;;24.71;62.99
9335;BME280;4706;41.844;26.082;2023-05-25T06:03:46;100747.06;;;24.76;61.76
9335;BME280;4706;41.844;26.082;2023-05-25T06:06:12;100743.84;;;24.74;63.20
9335;BME280;4706;41.844;26.082;2023-05-25T06:08:37;100739.06;;;24.82;63.36
9335;BME280;4706;41.844;26.082;2023-05-25T06:11:05;100744.75;;;24.96;62.16
9335;BME280;4706;41.844;26.082;2023-05-25T06:13:30;100743.66;;;25.15;62.01
9335;BME280;4706;41.844;26.082;2023-05-25T06:15:56;100747.34;;;25.33;59.65
9335;BME280;4706;41.844;26.082;2023-05-25T06:18:21;100743.75;;;25.36;59.04
9335;BME280;4706;41.844;26.082;2023-05-25T06:20:47;100744.59;;;25.55;60.24
9335;BME280;4706;41.844;26.082;2023-05-25T06:23:12;100731.34;;;25.62;57.56
9335;BME280;4706;41.844;26.082;2023-05-25T06:25:39;100744.63;;;25.73;57.99
9335;BME280;4706;41.844;26.082;2023-05-25T06:28:05;100736.19;;;25.87;58.83
9335;BME280;4706;41.844;26.082;2023-05-25T06:30:30;100745.88;;;26.07;57.95
9335;BME280;4706;41.844;26.082;2023-05-25T06:32:56;100735.41;;;26.15;57.81
9335;BME280;4706;41.844;26.082;2023-05-25T06:35:22;100741.84;;;26.15;57.99
9335;BME280;4706;41.844;26.082;2023-05-25T06:37:48;100747.06;;;26.21;57.54
9335;BME280;4706;41.844;26.082;2023-05-25T06:40:14;100741.00;;;26.40;57.20
9335;BME280;4706;41.844;26.082;2023-05-25T06:42:40;100732.97;;;26.53;56.87
9335;BME280;4706;41.844;26.082;2023-05-25T06:45:07;100741.00;;;26.69;56.91
9335;BME280;4706;41.844;26.082;2023-05-25T06:47:32;100730.88;;;26.82;56.58
9335;BME280;4706;41.844;26.082;2023-05-25T06:49:58;100738.91;;;26.91;56.37
9335;BME280;4706;41.844;26.082;2023-05-25T06:52:24;100728.34;;;27.09;54.96
9335;BME280;4706;41.844;26.082;2023-05-25T06:54:52;100743.56;;;27.36;53.68
9335;BME280;4706;41.844;26.082;2023-05-25T06:57:18;100741.47;;;27.51;53.79
9335;BME280;4706;41.844;26.082;2023-05-25T06:59:43;100729.38;;;27.51;53.45
9335;BME280;4706;41.844;26.082;2023-05-25T07:02:09;100729.25;;;27.69;53.47
9335;BME280;4706;41.844;26.082;2023-05-25T07:04:34;100723.06;;;27.92;52.89
9335;BME280;4706;41.844;26.082;2023-05-25T07:07:00;100720.13;;;28.02;51.37
9335;BME280;4706;41.844;26.082;2023-05-25T07:09:25;100718.81;;;28.14;51.66
9335;BME280;4706;41.844;26.082;2023-05-25T07:11:51;100721.63;;;28.18;52.03
9335;BME280;4706;41.844;26.082;2023-05-25T07:14:16;100724.59;;;28.45;51.29
9335;BME280;4706;41.844;26.082;2023-05-25T07:16:42;100721.19;;;28.61;50.33
9335;BME280;4706;41.844;26.082;2023-05-25T07:19:09;100732.69;;;28.80;49.18
9335;BME280;4706;41.844;26.082;2023-05-25T07:21:35;100724.66;;;28.75;49.04
9335;BME280;4706;41.844;26.082;2023-05-25T07:24:04;100714.53;;;28.78;48.18
9335;BME280;4706;41.844;26.082;2023-05-25T07:26:31;100723.03;;;29.12;47.82
9335;BME280;4706;41.844;26.082;2023-05-25T07:28:56;100711.56;;;29.23;47.71
9335;BME280;4706;41.844;26.082;2023-05-25T07:31:22;100717.41;;;29.39;47.66
9335;BME280;4706;41.844;26.082;2023-05-25T07:33:48;100715.50;;;29.29;47.77
9335;BME280;4706;41.844;26.082;2023-05-25T07:36:13;100716.41;;;29.22;48.70
9335;BME280;4706;41.844;26.082;2023-05-25T07:38:39;100717.91;;;29.61;48.05
9335;BME280;4706;41.844;26.082;2023-05-25T07:41:04;100720.22;;;29.70;48.43
9335;BME280;4706;41.844;26.082;2023-05-25T07:43:30;100719.53;;;29.32;47.09
9335;BME280;4706;41.844;26.082;2023-05-25T07:45:56;100723.88;;;29.09;46.67
9335;BME280;4706;41.844;26.082;2023-05-25T07:48:21;100723.66;;;29.27;48.40
9335;BME280;4706;41.844;26.082;2023-05-25T07:50:47;100713.47;;;29.29;47.91
9335;BME280;4706;41.844;26.082;2023-05-25T07:53:13;100729.34;;;29.54;48.17
9335;BME280;4706;41.844;26.082;2023-05-25T07:55:38;100722.69;;;29.68;47.44
9335;BME280;4706;41.844;26.082;2023-05-25T07:58:04;100724.91;;;29.80;46.98
9335;BME280;4706;41.844;26.082;2023-05-25T08:00:31;100724.97;;;30.00;45.64
9335;BME280;4706;41.844;26.082;2023-05-25T08:02:57;100713.06;;;30.09;45.52
9335;BME280;4706;41.844;26.082;2023-05-25T08:05:23;100716.56;;;30.20;45.33
9335;BME280;4706;41.844;26.082;2023-05-25T08:07:48;100722.16;;;30.47;45.23
9335;BME280;4706;41.844;26.082;2023-05-25T08:10:14;100706.25;;;30.73;43.58
9335;BME280;4706;41.844;26.082;2023-05-25T08:12:40;100717.97;;;30.95;43.37
9335;BME280;4706;41.844;26.082;2023-05-25T08:15:05;100716.09;;;30.88;43.38
9335;BME280;4706;41.844;26.082;2023-05-25T08:17:31;100709.44;;;30.95;42.80
9335;BME280;4706;41.844;26.082;2023-05-25T08:19:56;100711.50;;;30.94;42.79
9335;BME280;4706;41.844;26.082;2023-05-25T08:22:22;100721.03;;;31.04;43.62
9335;BME280;4706;41.844;26.082;2023-05-25T08:24:47;100713.97;;;31.12;43.43
9335;BME280;4706;41.844;26.082;2023-05-25T08:27:13;100711.47;;;31.34;44.09
9335;BME280;4706;41.844;26.082;2023-05-25T08:29:38;100708.56;;;31.38;43.57
9335;BME280;4706;41.844;26.082;2023-05-25T08:32:04;100693.81;;;31.43;42.86
9335;BME280;4706;41.844;26.082;2023-05-25T08:34:30;100700.91;;;31.51;42.22
9335;BME280;4706;41.844;26.082;2023-05-25T08:36:58;100700.84;;;31.55;42.41
9335;BME280;4706;41.844;26.082;2023-05-25T08:39:23;100693.81;;;31.59;42.79
9335;BME280;4706;41.844;26.082;2023-05-25T08:41:49;100700.41;;;31.73;43.15
9335;BME280;4706;41.844;26.082;2023-05-25T08:44:16;100705.47;;;31.81;42.85
9335;BME280;4706;41.844;26.082;2023-05-25T08:46:41;100697.47;;;31.76;42.01
9335;BME280;4706;41.844;26.082;2023-05-25T08:49:12;100698.72;;;31.75;41.50
9335;BME280;4706;41.844;26.082;2023-05-25T08:51:41;100702.00;;;31.74;42.42
9335;BME280;4706;41.844;26.082;2023-05-25T08:54:08;100687.91;;;31.86;42.08
9335;BME280;4706;41.844;26.082;2023-05-25T08:57:39;100687.16;;;32.15;41.51
9335;BME280;4706;41.844;26.082;2023-05-25T09:00:02;100685.78;;;32.36;40.24
9335;BME280;4706;41.844;26.082;2023-05-25T09:02:33;100687.75;;;32.23;40.41
9335;BME280;4706;41.844;26.082;2023-05-25T09:05:00;100687.59;;;32.46;40.55
9335;BME280;4706;41.844;26.082;2023-05-25T09:07:29;100678.66;;;32.73;39.88
9335;BME280;4706;41.844;26.082;2023-05-25T09:09:56;100679.47;;;32.86;39.23
9335;BME280;4706;41.844;26.082;2023-05-25T09:12:22;100682.41;;;33.12;38.94
9335;BME280;4706;41.844;26.082;2023-05-25T09:14:48;100679.22;;;33.23;38.04
9335;BME280;4706;41.844;26.082;2023-05-25T09:17:15;100664.19;;;33.22;37.95
9335;BME280;4706;41.844;26.082;2023-05-25T09:19:41;100658.94;;;33.21;38.16
9335;BME280;4706;41.844;26.082;2023-05-25T09:22:07;100656.53;;;33.32;38.05
9335;BME280;4706;41.844;26.082;2023-05-25T09:24:34;100647.88;;;33.35;38.30
9335;BME280;4706;41.844;26.082;2023-05-25T09:27:01;100639.09;;;33.43;37.68
9335;BME280;4706;41.844;26.082;2023-05-25T09:29:28;100655.97;;;33.75;38.22
9335;BME280;4706;41.844;26.082;2023-05-25T09:31:55;100663.53;;;33.56;37.36
9335;BME280;4706;41.844;26.082;2023-05-25T09:34:20;100653.94;;;33.50;37.99
9335;BME280;4706;41.844;26.082;2023-05-25T09:36:46;100647.06;;;33.73;37.68
9335;BME280;4706;41.844;26.082;2023-05-25T09:39:12;100642.72;;;33.43;36.85
9335;BME280;4706;41.844;26.082;2023-05-25T09:41:40;100646.06;;;33.29;38.02
9335;BME280;4706;41.844;26.082;2023-05-25T09:44:06;100643.66;;;33.66;38.33
9335;BME280;4706;41.844;26.082;2023-05-25T09:46:32;100655.59;;;33.86;36.93
9335;BME280;4706;41.844;26.082;2023-05-25T09:49:07;100651.00;;;33.89;37.67
9335;BME280;4706;41.844;26.082;2023-05-25T09:51:34;100649.63;;;34.06;36.21
9335;BME280;4706;41.844;26.082;2023-05-25T09:54:01;100651.31;;;34.16;35.25
9335;BME280;4706;41.844;26.082;2023-05-25T09:56:28;100658.41;;;34.12;35.38
9335;BME280;4706;41.844;26.082;2023-05-25T09:58:56;100652.19;;;33.78;36.17
9335;BME280;4706;41.844;26.082;2023-05-25T10:01:22;100654.06;;;33.59;34.60
9335;BME280;4706;41.844;26.082;2023-05-25T10:03:48;100647.34;;;32.73;36.58
9335;BME280;4706;41.844;26.082;2023-05-25T10:06:16;100654.50;;;33.07;34.81
9335;BME280;4706;41.844;26.082;2023-05-25T10:08:46;100650.88;;;32.77;36.83
9335;BME280;4706;41.844;26.082;2023-05-25T10:11:14;100649.03;;;32.71;36.02
9335;BME280;4706;41.844;26.082;2023-05-25T10:13:43;100650.50;;;33.04;35.44
9335;BME280;4706;41.844;26.082;2023-05-25T10:16:09;100631.69;;;33.20;34.52
9335;BME280;4706;41.844;26.082;2023-05-25T10:18:51;100650.28;;;33.37;33.71
9335;BME280;4706;41.844;26.082;2023-05-25T10:21:19;100637.50;;;33.67;35.65
9335;BME280;4706;41.844;26.082;2023-05-25T10:23:49;100635.31;;;33.20;39.36
9335;BME280;4706;41.844;26.082;2023-05-25T10:26:23;100618.78;;;32.48;40.95
9335;BME280;4706;41.844;26.082;2023-05-25T10:28:55;100615.25;;;31.82;42.06
9335;BME280;4706;41.844;26.082;2023-05-25T10:31:21;100618.94;;;31.33;42.47
9335;BME280;4706;41.844;26.082;2023-05-25T10:33:48;100619.19;;;31.03;44.51
9335;BME280;4706;41.844;26.082;2023-05-25T10:36:13;100613.59;;;30.99;43.54
9335;BME280;4706;41.844;26.082;2023-05-25T10:38:39;100613.13;;;30.84;42.05
9335;BME280;4706;41.844;26.082;2023-05-25T10:41:08;100605.69;;;30.90;43.95
9335;BME280;4706;41.844;26.082;2023-05-25T10:43:35;100605.69;;;30.90;44.80
9335;BME280;4706;41.844;26.082;2023-05-25T10:46:01;100602.66;;;30.81;45.14
9335;BME280;4706;41.844;26.082;2023-05-25T10:48:36;100598.88;;;30.48;45.40
9335;BME280;4706;41.844;26.082;2023-05-25T10:51:02;100608.78;;;29.73;49.57
9335;BME280;4706;41.844;26.082;2023-05-25T10:53:28;100593.34;;;29.00;50.88
9335;BME280;4706;41.844;26.082;2023-05-25T10:58:21;100602.59;;;29.55;48.11
9335;BME280;4706;41.844;26.082;2023-05-25T11:06:09;100600.16;;;30.83;41.97
9335;BME280;4706;41.844;26.082;2023-05-25T11:12:06;100588.19;;;31.61;39.41
9335;BME280;4706;41.844;26.082;2023-05-25T11:14:33;100588.69;;;31.72;38.23
9335;BME280;4706;41.844;26.082;2023-05-25T11:17:20;100593.44;;;32.08;37.99
9335;BME280;4706;41.844;26.082;2023-05-25T11:19:51;100576.28;;;32.40;36.21
9335;BME280;4706;41.844;26.082;2023-05-25T11:22:31;100582.72;;;31.99;36.86
9335;BME280;4706;41.844;26.082;2023-05-25T11:24:59;100583.59;;;32.12;35.53
9335;BME280;4706;41.844;26.082;2023-05-25T11:27:30;100582.03;;;32.24;34.90
9335;BME280;4706;41.844;26.082;2023-05-25T11:29:57;100577.78;;;32.16;33.89
9335;BME280;4706;41.844;26.082;2023-05-25T11:32:24;100585.72;;;32.08;33.26
9335;BME280;4706;41.844;26.082;2023-05-25T11:34:53;100574.50;;;32.30;31.33
9335;BME280;4706;41.844;26.082;2023-05-25T11:37:21;100582.03;;;32.24;32.16
9335;BME280;4706;41.844;26.082;2023-05-25T11:39:52;100586.00;;;32.56;32.54
9335;BME280;4706;41.844;26.082;2023-05-25T11:42:22;100578.53;;;32.87;34.99
9335;BME280;4706;41.844;26.082;2023-05-25T11:44:48;100569.00;;;33.07;34.78
9335;BME280;4706;41.844;26.082;2023-05-25T11:47:15;100572.63;;;33.07;34.94
9335;BME280;4706;41.844;26.082;2023-05-25T11:49:47;100567.47;;;32.89;32.98
9335;BME280;4706;41.844;26.082;2023-05-25T11:52:16;100561.56;;;32.84;33.61
9335;BME280;4706;41.844;26.082;2023-05-25T11:54:43;100556.41;;;32.24;34.25
9335;BME280;4706;41.844;26.082;2023-05-25T11:57:20;100553.97;;;31.64;35.92
9335;BME280;4706;41.844;26.082;2023-05-25T11:59:54;100551.41;;;31.54;35.71
9335;BME280;4706;41.844;26.082;2023-05-25T12:02:21;100557.44;;;31.23;36.36
9335;BME280;4706;41.844;26.082;2023-05-25T12:04:59;100549.88;;;31.16;36.72
9335;BME280;4706;41.844;26.082;2023-05-25T12:07:29;100550.75;;;30.97;35.07
9335;BME280;4706;41.844;26.082;2023-05-25T12:10:08;100557.38;;;30.74;35.59
9335;BME280;4706;41.844;26.082;2023-05-25T12:12:47;100559.81;;;30.12;36.83
9335;BME280;4706;41.844;26.082;2023-05-25T12:15:21;100560.59;;;29.73;39.08
9335;BME280;4706;41.844;26.082;2023-05-25T12:17:48;100564.22;;;28.99;38.86
9335;BME280;4706;41.844;26.082;2023-05-25T12:20:15;100569.38;;;28.77;39.50
9335;BME280;4706;41.844;26.082;2023-05-25T12:22:42;100578.50;;;28.24;40.79
9335;BME280;4706;41.844;26.082;2023-05-25T12:25:12;100569.72;;;28.15;39.87
9335;BME280;4706;41.844;26.082;2023-05-25T12:27:38;100580.22;;;27.80;40.88
9335;BME280;4706;41.844;26.082;2023-05-25T12:30:06;100584.66;;;27.77;41.37
9335;BME280;4706;41.844;26.082;2023-05-25T12:32:32;100580.03;;;27.94;40.96
9335;BME280;4706;41.844;26.082;2023-05-25T12:35:04;100587.03;;;27.34;46.94
9335;BME280;4706;41.844;26.082;2023-05-25T12:37:30;100596.34;;;27.31;46.27
9335;BME280;4706;41.844;26.082;2023-05-25T12:39:56;100588.16;;;27.44;45.55
9335;BME280;4706;41.844;26.082;2023-05-25T12:42:22;100604.25;;;27.50;46.82
9335;BME280;4706;41.844;26.082;2023-05-25T12:44:54;100597.84;;;26.80;48.70
9335;BME280;4706;41.844;26.082;2023-05-25T12:47:23;100605.25;;;26.49;50.21
9335;BME280;4706;41.844;26.082;2023-05-25T12:49:53;100630.28;;;26.22;55.08
9335;BME280;4706;41.844;26.082;2023-05-25T12:52:34;100616.13;;;26.32;55.91
9335;BME280;4706;41.844;26.082;2023-05-25T12:55:29;100625.00;;;26.38;57.61
9335;BME280;4706;41.844;26.082;2023-05-25T12:57:57;100642.75;;;26.21;58.71
9335;BME280;4706;41.844;26.082;2023-05-25T13:00:29;100655.69;;;25.93;57.71
9335;BME280;4706;41.844;26.082;2023-05-25T13:02:56;100651.66;;;25.80;57.44
9335;BME280;4706;41.844;26.082;2023-05-25T13:05:24;100643.22;;;25.65;56.99
9335;BME280;4706;41.844;26.082;2023-05-25T13:07:51;100631.50;;;25.46;59.57
9335;BME280;4706;41.844;26.082;2023-05-25T13:10:17;100621.03;;;25.42;58.08
9335;BME280;4706;41.844;26.082;2023-05-25T13:12:47;100619.03;;;25.25;57.94
9335;BME280;4706;41.844;26.082;2023-05-25T13:15:16;100594.47;;;25.18;57.93